createdAt,value
2019-02-20T00:00:51.874Z,6.32
2019-02-20T00:01:52.578Z,6.21
2019-02-20T00:02:51.882Z,6.28
2019-02-20T00:03:51.851Z,6.25
2019-02-20T00:04:51.836Z,6.32
2019-02-20T00:05:51.855Z,6.32
2019-02-20T00:06:51.816Z,6.27
2019-02-20T00:07:51.809Z,6.32
2019-02-20T00:08:51.822Z,6.30
2019-02-20T00:09:51.784Z,6.32
2019-02-20T00:10:51.765Z,6.28
2019-02-20T00:11:51.760Z,6.28
2019-02-20T00:12:51.758Z,6.27
2019-02-20T00:13:51.746Z,6.25
2019-02-20T00:14:51.746Z,6.24
2019-02-20T00:15:51.730Z,6.28
2019-02-20T00:16:51.727Z,6.28
2019-02-20T00:17:51.695Z,6.24
2019-02-20T00:18:51.696Z,6.28
2019-02-20T00:19:51.704Z,6.32
2019-02-20T00:20:51.699Z,6.35
2019-02-20T00:21:51.680Z,6.28
2019-02-20T00:22:51.635Z,6.27
2019-02-20T00:23:51.636Z,6.32
2019-02-20T00:24:51.622Z,6.33
2019-02-20T00:25:51.633Z,6.30
2019-02-20T00:26:51.612Z,6.36
2019-02-20T00:27:51.585Z,6.33
2019-02-20T00:28:51.581Z,6.33
2019-02-20T00:29:51.566Z,6.33
2019-02-20T00:30:51.569Z,6.33
2019-02-20T00:31:51.550Z,6.32
2019-02-20T00:32:51.553Z,6.33
2019-02-20T00:33:51.527Z,6.32
2019-02-20T00:34:51.512Z,6.32
2019-02-20T00:35:51.611Z,6.27
2019-02-20T00:36:51.495Z,6.32
2019-02-20T00:37:51.488Z,6.28
2019-02-20T00:38:51.466Z,6.24
2019-02-20T00:39:51.462Z,6.28
2019-02-20T00:40:51.503Z,6.28
2019-02-20T00:41:51.454Z,6.33
2019-02-20T00:42:51.433Z,6.35
2019-02-20T00:43:51.424Z,6.36
2019-02-20T00:44:51.408Z,6.38
2019-02-20T00:45:51.395Z,6.24
2019-02-20T00:46:51.423Z,6.25
2019-02-20T00:47:51.442Z,6.25
2019-02-20T00:48:51.359Z,6.27
2019-02-20T00:49:51.370Z,6.28
2019-02-20T00:50:51.336Z,6.25
2019-02-20T00:51:51.338Z,6.20
2019-02-20T00:52:51.345Z,6.27
2019-02-20T00:53:51.313Z,6.25
2019-02-20T00:54:51.312Z,6.32
2019-02-20T00:55:51.301Z,6.25
2019-02-20T00:56:51.282Z,6.32
2019-02-20T00:57:51.318Z,6.21
2019-02-20T00:58:51.281Z,6.24
2019-02-20T00:59:51.255Z,6.19
2019-02-20T01:00:51.290Z,6.28
2019-02-20T01:01:51.239Z,6.33
2019-02-20T01:02:51.221Z,6.28
2019-02-20T01:03:51.267Z,6.32
2019-02-20T01:04:51.189Z,6.32
2019-02-20T01:05:51.189Z,6.28
2019-02-20T01:06:51.178Z,6.28
2019-02-20T01:07:51.210Z,6.32
2019-02-20T01:08:51.153Z,6.28
2019-02-20T01:09:51.167Z,6.35
2019-02-20T01:10:51.132Z,6.32
2019-02-20T01:11:51.125Z,6.35
2019-02-20T01:12:51.117Z,6.35
2019-02-20T01:13:51.117Z,6.30
2019-02-20T01:14:51.109Z,6.28
2019-02-20T01:15:51.077Z,6.33
2019-02-20T01:16:51.075Z,6.32
2019-02-20T01:17:51.060Z,6.28
2019-02-20T01:18:51.054Z,6.27
2019-02-20T01:19:51.053Z,6.28
2019-02-20T01:20:51.051Z,6.25
2019-02-20T01:21:51.013Z,6.27
2019-02-20T01:22:59.609Z,6.20
2019-02-20T01:23:51.989Z,6.28
2019-02-20T01:24:50.991Z,6.25
2019-02-20T01:25:50.997Z,6.25
2019-02-20T01:26:50.971Z,6.28
2019-02-20T01:27:50.981Z,6.30
2019-02-20T01:28:50.970Z,6.28
2019-02-20T01:29:50.939Z,6.27
2019-02-20T01:30:50.928Z,6.25
2019-02-20T01:31:50.901Z,6.27
2019-02-20T01:32:50.898Z,6.24
2019-02-20T01:33:50.884Z,6.25
2019-02-20T01:34:50.902Z,6.30
2019-02-20T01:35:50.868Z,6.27
2019-02-20T01:36:50.868Z,6.30
2019-02-20T01:37:50.846Z,6.28
2019-02-20T01:38:50.835Z,6.36
2019-02-20T01:39:50.832Z,6.24
2019-02-20T01:40:50.831Z,6.28
2019-02-20T01:41:50.809Z,6.25
2019-02-20T01:42:50.801Z,6.25
2019-02-20T01:43:50.781Z,6.27
2019-02-20T01:44:50.763Z,6.28
2019-02-20T01:45:50.773Z,6.17
2019-02-20T01:46:50.780Z,6.32
2019-02-20T01:47:50.737Z,6.27
2019-02-20T01:48:50.729Z,6.27
2019-02-20T01:49:50.721Z,6.27
2019-02-20T01:50:50.698Z,6.19
2019-02-20T01:51:50.703Z,6.19
2019-02-20T01:52:50.716Z,6.25
2019-02-20T01:53:50.670Z,6.21
2019-02-20T01:54:50.666Z,6.17
2019-02-20T01:55:50.647Z,6.19
2019-02-20T01:56:50.640Z,6.14
2019-02-20T01:57:50.680Z,6.20
2019-02-20T01:58:50.624Z,6.16
2019-02-20T01:59:50.626Z,6.17
2019-02-20T02:00:50.601Z,6.17
2019-02-20T02:01:50.589Z,6.06
2019-02-20T02:02:50.586Z,6.10
2019-02-20T02:03:50.600Z,6.19
2019-02-20T02:04:50.557Z,6.10
2019-02-20T02:05:50.560Z,6.06
2019-02-20T02:06:50.528Z,6.11
2019-02-20T02:07:50.534Z,6.11
2019-02-20T02:08:50.512Z,6.20
2019-02-20T02:09:50.554Z,6.10
2019-02-20T02:10:50.497Z,6.06
2019-02-20T02:11:50.500Z,6.06
2019-02-20T02:12:50.473Z,6.16
2019-02-20T02:13:50.459Z,6.17
2019-02-20T02:14:50.482Z,6.19
2019-02-20T02:15:50.437Z,6.13
2019-02-20T02:16:50.441Z,6.17
2019-02-20T02:17:50.445Z,6.14
2019-02-20T02:18:50.423Z,6.14
2019-02-20T02:19:50.396Z,6.16
2019-02-20T02:20:50.415Z,6.17
2019-02-20T02:21:50.373Z,6.16
2019-02-20T02:22:50.378Z,6.10
2019-02-20T02:23:50.355Z,6.11
2019-02-20T02:24:50.356Z,6.14
2019-02-20T02:25:50.334Z,6.17
2019-02-20T02:26:50.347Z,6.10
2019-02-20T02:27:50.314Z,6.17
2019-02-20T02:28:50.312Z,6.17
2019-02-20T02:29:50.284Z,6.10
2019-02-20T02:30:50.315Z,6.13
2019-02-20T02:31:50.294Z,6.05
2019-02-20T02:32:50.256Z,6.10
2019-02-20T02:33:50.259Z,6.16
2019-02-20T02:34:50.250Z,6.08
2019-02-20T02:35:50.226Z,6.08
2019-02-20T02:36:50.213Z,6.10
2019-02-20T02:37:50.235Z,6.05
2019-02-20T02:38:50.210Z,6.06
2019-02-20T02:39:50.186Z,6.11
2019-02-20T02:40:50.214Z,6.05
2019-02-20T02:41:50.167Z,6.08
2019-02-20T02:42:50.192Z,6.02
2019-02-20T02:43:50.143Z,6.02
2019-02-20T02:44:50.162Z,6.05
2019-02-20T02:45:50.123Z,6.02
2019-02-20T02:46:50.120Z,6.03
2019-02-20T02:47:50.095Z,6.10
2019-02-20T02:48:50.111Z,5.99
2019-02-20T02:49:50.077Z,6.11
2019-02-20T02:50:50.062Z,6.10
2019-02-20T02:51:50.067Z,6.02
2019-02-20T02:52:50.078Z,6.11
2019-02-20T02:53:50.037Z,6.02
2019-02-20T02:54:50.038Z,6.03
2019-02-20T02:55:50.025Z,6.03
2019-02-20T02:56:50.001Z,6.03
2019-02-20T02:57:49.992Z,6.03
2019-02-20T02:58:49.980Z,5.95
2019-02-20T02:59:49.984Z,6.03
2019-02-20T03:00:49.957Z,6.08
2019-02-20T03:01:49.971Z,6.14
2019-02-20T03:02:49.939Z,5.98
2019-02-20T03:03:49.941Z,5.96
2019-02-20T03:04:49.934Z,6.11
2019-02-20T03:05:49.905Z,5.96
2019-02-20T03:06:49.913Z,6.02
2019-02-20T03:07:49.886Z,6.01
2019-02-20T03:08:49.939Z,6.02
2019-02-20T03:09:49.896Z,6.17
2019-02-20T03:10:49.857Z,5.98
2019-02-20T03:11:49.852Z,5.98
2019-02-20T03:12:49.835Z,6.11
2019-02-20T03:13:49.818Z,6.06
2019-02-20T03:14:49.854Z,6.10
2019-02-20T03:15:49.818Z,5.98
2019-02-20T03:16:49.793Z,5.95
2019-02-20T03:17:49.774Z,6.03
2019-02-20T03:18:50.084Z,5.99
2019-02-20T03:19:49.755Z,6.03
2019-02-20T03:20:49.757Z,6.05
2019-02-20T03:21:49.737Z,6.08
2019-02-20T03:22:49.716Z,6.05
2019-02-20T03:23:49.746Z,6.01
2019-02-20T03:24:49.722Z,6.03
2019-02-20T03:25:49.691Z,6.01
2019-02-20T03:26:49.713Z,6.11
2019-02-20T03:27:49.667Z,5.99
2019-02-20T03:28:49.709Z,6.01
2019-02-20T03:29:49.648Z,6.08
2019-02-20T03:30:49.652Z,6.05
2019-02-20T03:31:49.629Z,6.03
2019-02-20T03:32:49.630Z,6.06
2019-02-20T03:33:49.611Z,6.11
2019-02-20T03:34:49.658Z,6.02
2019-02-20T03:35:49.590Z,6.02
2019-02-20T03:36:49.591Z,5.98
2019-02-20T03:37:49.558Z,5.95
2019-02-20T03:38:49.584Z,6.01
2019-02-20T03:39:49.585Z,5.87
2019-02-20T03:40:49.523Z,5.95
2019-02-20T03:41:49.520Z,5.98
2019-02-20T03:42:49.555Z,6.02
2019-02-20T03:43:49.534Z,5.98
2019-02-20T03:44:49.506Z,5.90
2019-02-20T03:45:49.472Z,6.02
2019-02-20T03:46:49.466Z,5.95
2019-02-20T03:47:49.452Z,5.95
2019-02-20T03:48:49.504Z,5.84
2019-02-20T03:49:49.443Z,5.98
2019-02-20T03:50:49.438Z,5.99
2019-02-20T03:51:49.412Z,5.88
2019-02-20T03:52:49.396Z,5.92
2019-02-20T03:53:51.899Z,5.83
2019-02-20T03:54:49.405Z,5.90
2019-02-20T03:55:49.380Z,5.87
2019-02-20T03:56:49.399Z,5.90
2019-02-20T03:57:49.369Z,5.90
2019-02-20T03:58:49.335Z,5.96
2019-02-20T03:59:49.329Z,5.92
2019-02-20T04:00:49.348Z,5.90
2019-02-20T04:01:49.317Z,5.90
2019-02-20T04:02:49.309Z,5.96
2019-02-20T04:03:49.300Z,5.90
2019-02-20T04:04:49.273Z,5.93
2019-02-20T04:05:49.272Z,5.88
2019-02-20T04:06:49.276Z,5.93
2019-02-20T04:07:49.253Z,5.92
2019-02-20T04:08:49.231Z,5.93
2019-02-20T04:09:49.214Z,5.96
2019-02-20T04:10:49.210Z,5.93
2019-02-20T04:11:49.241Z,5.92
2019-02-20T04:12:49.221Z,5.92
2019-02-20T04:13:49.176Z,5.96
2019-02-20T04:14:49.212Z,5.96
2019-02-20T04:15:49.154Z,5.92
2019-02-20T04:16:49.150Z,5.92
2019-02-20T04:17:49.164Z,5.88
2019-02-20T04:18:49.134Z,5.90
2019-02-20T04:19:49.140Z,5.92
2019-02-20T04:20:49.111Z,5.92
2019-02-20T04:21:49.111Z,5.90
2019-02-20T04:22:49.086Z,5.88
2019-02-20T04:23:49.104Z,5.87
2019-02-20T04:24:49.074Z,5.92
2019-02-20T04:25:49.072Z,5.90
2019-02-20T04:26:49.045Z,5.92
2019-02-20T04:27:49.038Z,5.80
2019-02-20T04:28:49.022Z,5.88
2019-02-20T04:29:49.047Z,5.90
2019-02-20T04:30:49.009Z,5.90
2019-02-20T04:31:48.990Z,5.90
2019-02-20T04:32:48.989Z,5.88
2019-02-20T04:33:48.966Z,5.88
2019-02-20T04:34:48.986Z,5.85
2019-02-20T04:35:48.969Z,5.92
2019-02-20T04:36:48.942Z,5.87
2019-02-20T04:37:48.926Z,5.88
2019-02-20T04:38:48.919Z,5.87
2019-02-20T04:39:48.907Z,5.90
2019-02-20T04:40:48.905Z,5.85
2019-02-20T04:41:48.883Z,5.92
2019-02-20T04:42:48.876Z,5.90
2019-02-20T04:43:48.861Z,5.90
2019-02-20T04:44:48.858Z,5.92
2019-02-20T04:45:48.862Z,5.85
2019-02-20T04:46:48.822Z,5.81
2019-02-20T04:47:48.820Z,5.90
2019-02-20T04:48:48.820Z,5.85
2019-02-20T04:49:48.799Z,5.87
2019-02-20T04:50:48.808Z,5.88
2019-02-20T04:51:48.778Z,5.83
2019-02-20T04:52:48.793Z,5.87
2019-02-20T04:53:48.758Z,5.85
2019-02-20T04:54:48.786Z,5.92
2019-02-20T04:55:48.790Z,5.92
2019-02-20T04:56:48.738Z,5.84
2019-02-20T04:57:48.748Z,5.87
2019-02-20T04:58:48.715Z,5.84
2019-02-20T04:59:48.723Z,5.87
2019-02-20T05:00:49.124Z,5.90
2019-02-20T05:01:48.719Z,5.88
2019-02-20T05:03:10.564Z,5.81
2019-02-20T05:03:49.558Z,5.87
2019-02-20T05:04:49.563Z,5.90
2019-02-20T05:05:49.108Z,5.88
2019-02-20T05:06:48.656Z,5.83
2019-02-20T05:08:03.604Z,5.88
2019-02-20T05:08:48.605Z,5.87
2019-02-20T05:09:48.590Z,5.85
2019-02-20T05:10:48.595Z,5.88
2019-02-20T05:11:48.566Z,5.83
2019-02-20T05:12:48.571Z,5.90
2019-02-20T05:13:48.574Z,5.88
2019-02-20T05:14:48.533Z,5.93
2019-02-20T05:15:48.555Z,5.90
2019-02-20T05:16:48.511Z,5.85
2019-02-20T05:17:48.519Z,5.83
2019-02-20T05:18:48.527Z,5.84
2019-02-20T05:19:48.528Z,5.93
2019-02-20T05:20:48.548Z,5.90
2019-02-20T05:21:48.483Z,5.83
2019-02-20T05:22:48.464Z,5.87
2019-02-20T05:23:48.455Z,5.87
2019-02-20T05:24:48.462Z,5.84
2019-02-20T05:25:59.096Z,5.87
2019-02-20T05:26:48.412Z,5.85
2019-02-20T05:27:48.417Z,5.90
2019-02-20T05:29:11.101Z,5.80
2019-02-20T05:30:10.050Z,5.90
2019-02-20T05:31:58.307Z,5.78
2019-02-20T05:32:58.293Z,5.88
2019-02-20T05:35:07.879Z,5.87
2019-02-20T05:36:07.889Z,5.92
2019-02-20T05:37:07.808Z,5.88
2019-02-20T05:38:07.813Z,5.90
2019-02-20T05:39:07.799Z,5.88
2019-02-20T05:40:07.830Z,5.85
2019-02-20T05:41:07.795Z,5.87
2019-02-20T05:42:07.817Z,5.88
2019-02-20T05:43:07.767Z,5.88
2019-02-20T05:44:07.749Z,5.90
2019-02-20T05:45:07.749Z,5.87
2019-02-20T05:46:07.810Z,5.83
2019-02-20T05:47:07.733Z,5.84
2019-02-20T05:48:07.717Z,5.85
2019-02-20T05:49:07.834Z,5.85
2019-02-20T05:50:07.700Z,5.88
2019-02-20T05:51:07.694Z,5.90
2019-02-20T05:52:07.689Z,5.93
2019-02-20T05:53:07.667Z,5.80
2019-02-20T05:54:07.664Z,5.84
2019-02-20T05:55:07.631Z,5.83
2019-02-20T05:56:07.739Z,5.87
2019-02-20T05:57:08.251Z,5.88
2019-02-20T05:58:07.617Z,5.83
2019-02-20T05:59:07.589Z,5.81
2019-02-20T06:00:07.568Z,5.84
2019-02-20T06:01:07.603Z,5.80
2019-02-20T06:02:07.569Z,5.75
2019-02-20T06:03:07.568Z,5.85
2019-02-20T06:04:07.576Z,5.83
2019-02-20T06:05:07.574Z,5.77
2019-02-20T06:06:07.541Z,5.78
2019-02-20T06:07:07.517Z,5.78
2019-02-20T06:08:07.553Z,5.77
2019-02-20T06:09:07.505Z,5.78
2019-02-20T06:10:07.543Z,5.80
2019-02-20T06:11:14.495Z,5.80
2019-02-20T06:12:08.457Z,5.81
2019-02-20T06:13:07.438Z,5.81
2019-02-20T06:14:07.461Z,5.78
2019-02-20T06:15:07.432Z,5.80
2019-02-20T06:16:07.388Z,5.80
2019-02-20T06:17:07.398Z,5.78
2019-02-20T06:18:07.476Z,5.81
2019-02-20T06:19:07.359Z,5.78
2019-02-20T06:20:07.355Z,5.77
2019-02-20T06:21:07.352Z,5.77
2019-02-20T06:22:07.377Z,5.81
2019-02-20T06:23:07.372Z,5.84
2019-02-20T06:24:07.306Z,5.77
2019-02-20T06:25:07.296Z,5.80
2019-02-20T06:26:07.317Z,5.83
2019-02-20T06:27:08.043Z,5.77
2019-02-20T06:28:07.310Z,5.77
2019-02-20T06:29:07.243Z,5.78
2019-02-20T06:30:07.254Z,5.74
2019-02-20T06:31:07.247Z,5.77
2019-02-20T06:32:07.277Z,5.80
2019-02-20T06:33:07.271Z,5.83
2019-02-20T06:34:07.286Z,5.80
2019-02-20T06:35:07.180Z,5.75
2019-02-20T06:36:07.190Z,5.80
2019-02-20T06:37:07.175Z,5.78
2019-02-20T06:38:10.525Z,5.75
2019-02-20T06:39:07.170Z,5.74
2019-02-20T06:40:07.172Z,5.77
2019-02-20T06:41:07.122Z,5.80
2019-02-20T06:42:07.122Z,5.85
2019-02-20T06:43:07.129Z,5.77
2019-02-20T06:44:07.128Z,5.78
2019-02-20T06:45:07.135Z,5.74
2019-02-20T06:46:07.060Z,5.80
2019-02-20T06:47:07.063Z,5.93
2019-02-20T06:48:07.048Z,5.77
2019-02-20T06:49:07.056Z,5.77
2019-02-20T06:50:07.067Z,5.80
2019-02-20T06:51:07.127Z,5.77
2019-02-20T06:52:07.028Z,5.78
2019-02-20T06:53:06.997Z,5.80
2019-02-20T06:54:06.985Z,5.81
2019-02-20T06:55:07.009Z,5.83
2019-02-20T06:56:06.981Z,5.80
2019-02-20T06:57:06.971Z,5.77
2019-02-20T06:58:06.954Z,5.83
2019-02-20T06:59:06.936Z,5.83
2019-02-20T07:00:06.943Z,5.83
2019-02-20T07:01:06.942Z,5.84
2019-02-20T07:02:06.952Z,5.81
2019-02-20T07:03:07.042Z,5.84
2019-02-20T07:04:06.865Z,5.81
2019-02-20T07:05:06.864Z,5.83
2019-02-20T07:06:06.912Z,5.81
2019-02-20T07:07:06.901Z,5.83
2019-02-20T07:08:06.828Z,5.83
2019-02-20T07:09:06.895Z,5.83
2019-02-20T07:10:06.810Z,5.88
2019-02-20T07:11:06.817Z,5.83
2019-02-20T07:12:06.849Z,5.83
2019-02-20T07:13:06.835Z,5.88
2019-02-20T07:14:06.767Z,5.92
2019-02-20T07:15:06.762Z,5.85
2019-02-20T07:16:06.773Z,5.81
2019-02-20T07:17:06.861Z,5.88
2019-02-20T07:18:06.783Z,5.88
2019-02-20T07:19:06.726Z,5.84
2019-02-20T07:20:06.706Z,5.90
2019-02-20T07:21:06.748Z,5.85
2019-02-20T07:22:06.683Z,5.87
2019-02-20T07:23:06.685Z,5.87
2019-02-20T07:24:06.690Z,5.88
2019-02-20T07:25:06.643Z,5.88
2019-02-20T07:26:06.660Z,5.85
2019-02-20T07:27:06.706Z,5.95
2019-02-20T07:28:06.640Z,5.90
2019-02-20T07:29:06.631Z,5.90
2019-02-20T07:30:06.599Z,5.87
2019-02-20T07:31:06.583Z,5.92
2019-02-20T07:32:06.632Z,5.92
2019-02-20T07:33:06.660Z,5.92
2019-02-20T07:34:06.576Z,5.87
2019-02-20T07:35:06.591Z,5.98
2019-02-20T07:36:06.562Z,5.93
2019-02-20T07:37:06.720Z,5.93
2019-02-20T07:38:06.524Z,5.90
2019-02-20T07:39:06.514Z,5.96
2019-02-20T07:40:06.529Z,5.90
2019-02-20T07:41:06.494Z,5.93
2019-02-20T07:42:06.480Z,5.93
2019-02-20T07:43:06.480Z,5.88
2019-02-20T07:44:06.456Z,6.01
2019-02-20T07:45:06.465Z,5.90
2019-02-20T07:46:06.482Z,5.99
2019-02-20T07:47:06.433Z,5.83
2019-02-20T07:48:06.420Z,5.90
2019-02-20T07:49:06.397Z,6.03
2019-02-20T07:50:06.426Z,5.92
2019-02-20T07:51:06.779Z,5.99
2019-02-20T07:52:06.366Z,6.05
2019-02-20T07:54:15.091Z,6.08
2019-02-20T07:55:15.067Z,6.06
2019-02-20T07:56:15.082Z,6.03
2019-02-20T07:57:15.033Z,6.01
2019-02-20T07:58:15.034Z,5.96
2019-02-20T07:59:15.028Z,6.03
2019-02-20T08:00:15.021Z,6.16
2019-02-20T08:01:15.005Z,6.02
2019-02-20T08:02:15.050Z,6.05
2019-02-20T08:03:14.976Z,5.99
2019-02-20T08:04:14.969Z,5.95
2019-02-20T08:05:14.987Z,6.08
2019-02-20T08:06:14.973Z,6.17
2019-02-20T08:07:14.932Z,5.95
2019-02-20T08:08:14.978Z,6.06
2019-02-20T08:09:14.926Z,6.13
2019-02-20T08:10:14.904Z,6.10
2019-02-20T08:11:14.893Z,6.03
2019-02-20T08:12:14.878Z,6.14
2019-02-20T08:13:14.914Z,6.21
2019-02-20T08:14:14.902Z,6.16
2019-02-20T08:15:14.859Z,6.16
2019-02-20T08:16:14.840Z,6.14
2019-02-20T08:17:14.825Z,6.17
2019-02-20T08:18:14.823Z,6.16
2019-02-20T08:19:14.808Z,6.10
2019-02-20T08:20:14.839Z,6.13
2019-02-20T08:21:14.778Z,6.10
2019-02-20T08:22:14.782Z,6.19
2019-02-20T08:23:14.783Z,6.19
2019-02-20T08:24:14.749Z,6.28
2019-02-20T08:25:22.422Z,6.24
2019-02-20T08:26:15.747Z,6.33
2019-02-20T08:27:14.720Z,6.32
2019-02-20T08:28:14.717Z,6.27
2019-02-20T08:29:14.709Z,6.27
2019-02-20T08:30:14.690Z,6.25
2019-02-20T08:31:14.702Z,6.30
2019-02-20T08:32:14.674Z,6.30
2019-02-20T08:33:14.662Z,6.32
2019-02-20T08:34:14.657Z,6.35
2019-02-20T08:35:14.662Z,6.32
2019-02-20T08:36:14.630Z,6.25
2019-02-20T08:37:14.663Z,6.33
2019-02-20T08:38:14.616Z,6.32
2019-02-20T08:39:14.651Z,6.28
2019-02-20T08:40:14.641Z,6.39
2019-02-20T08:41:14.566Z,6.25
2019-02-20T08:42:14.619Z,6.35
2019-02-20T08:43:14.579Z,6.35
2019-02-20T08:44:14.576Z,6.27
2019-02-20T08:45:14.538Z,6.36
2019-02-20T08:46:14.555Z,6.43
2019-02-20T08:47:14.513Z,6.43
2019-02-20T08:48:14.741Z,6.39
2019-02-20T08:49:14.514Z,6.43
2019-02-20T08:50:14.488Z,6.38
2019-02-20T08:51:14.489Z,6.50
2019-02-20T08:52:14.480Z,6.43
2019-02-20T08:53:14.444Z,6.40
2019-02-20T08:54:14.441Z,6.39
2019-02-20T08:55:14.490Z,6.43
2019-02-20T08:56:14.434Z,6.42
2019-02-20T08:57:14.403Z,6.53
2019-02-20T08:58:14.417Z,6.43
2019-02-20T08:59:14.379Z,6.42
2019-02-20T09:00:14.375Z,6.46
2019-02-20T09:01:14.853Z,6.40
2019-02-20T09:02:14.343Z,6.45
2019-02-20T09:03:14.352Z,6.50
2019-02-20T09:04:14.333Z,6.50
2019-02-20T09:05:14.359Z,6.40
2019-02-20T09:06:14.308Z,6.51
2019-02-20T09:07:14.342Z,6.53
2019-02-20T09:08:14.286Z,6.57
2019-02-20T09:09:14.285Z,6.57
2019-02-20T09:10:14.282Z,6.51
2019-02-20T09:11:14.250Z,6.51
2019-02-20T09:12:14.249Z,6.55
2019-02-20T09:13:14.234Z,6.64
2019-02-20T09:14:14.234Z,6.68
2019-02-20T09:15:14.207Z,6.61
2019-02-20T09:16:14.206Z,6.69
2019-02-20T09:17:14.225Z,6.65
2019-02-20T09:18:14.174Z,6.78
2019-02-20T09:19:14.167Z,6.76
2019-02-20T09:20:14.169Z,6.78
2019-02-20T09:21:14.149Z,6.78
2019-02-20T09:22:14.135Z,6.81
2019-02-20T09:23:14.144Z,6.83
2019-02-20T09:24:14.105Z,6.94
2019-02-20T09:25:19.937Z,6.93
2019-02-20T09:26:15.112Z,6.90
2019-02-20T09:27:14.098Z,6.87
2019-02-20T09:28:14.069Z,6.81
2019-02-20T09:29:14.057Z,6.91
2019-02-20T09:30:14.038Z,6.97
2019-02-20T09:31:14.028Z,6.90
2019-02-20T09:32:14.052Z,6.90
2019-02-20T09:33:14.023Z,6.96
2019-02-20T09:34:14.001Z,6.90
2019-02-20T09:35:13.991Z,6.91
2019-02-20T09:36:13.994Z,6.93
2019-02-20T09:37:13.970Z,6.99
2019-02-20T09:38:13.977Z,6.90
2019-02-20T09:39:13.950Z,6.91
2019-02-20T09:40:13.941Z,6.91
2019-02-20T09:41:13.928Z,6.87
2019-02-20T09:42:13.922Z,6.93
2019-02-20T09:43:13.934Z,6.86
2019-02-20T09:44:13.912Z,6.89
2019-02-20T09:45:13.887Z,6.93
2019-02-20T09:46:13.874Z,6.91
2019-02-20T09:47:13.856Z,6.93
2019-02-20T09:48:13.882Z,6.96
2019-02-20T09:49:13.889Z,6.93
2019-02-20T09:50:13.851Z,6.96
2019-02-20T09:51:13.836Z,7.04
2019-02-20T09:52:13.810Z,7.08
2019-02-20T09:53:13.811Z,7.08
2019-02-20T09:54:13.823Z,7.08
2019-02-20T09:55:13.808Z,7.05
2019-02-20T09:56:16.109Z,7.08
2019-02-20T09:57:13.765Z,7.09
2019-02-20T09:58:13.744Z,7.08
2019-02-20T09:59:13.735Z,7.05
2019-02-20T10:00:13.734Z,7.18
2019-02-20T10:01:13.734Z,7.12
2019-02-20T10:02:13.719Z,7.12
2019-02-20T10:03:13.693Z,7.14
2019-02-20T10:04:13.673Z,7.14
2019-02-20T10:05:13.685Z,7.18
2019-02-20T10:06:13.652Z,7.18
2019-02-20T10:07:13.650Z,7.18
2019-02-20T10:08:13.664Z,7.19
2019-02-20T10:09:13.630Z,7.23
2019-02-20T10:10:13.631Z,7.14
2019-02-20T10:11:13.629Z,7.19
2019-02-20T10:12:13.589Z,7.24
2019-02-20T10:13:13.581Z,7.23
2019-02-20T10:14:13.563Z,7.16
2019-02-20T10:15:13.560Z,7.19
2019-02-20T10:16:13.584Z,7.19
2019-02-20T10:17:13.558Z,7.16
2019-02-20T10:18:13.527Z,7.24
2019-02-20T10:19:13.519Z,7.21
2019-02-20T10:20:13.512Z,7.23
2019-02-20T10:21:13.509Z,7.23
2019-02-20T10:22:13.511Z,7.24
2019-02-20T10:23:13.465Z,7.23
2019-02-20T10:24:13.462Z,7.33
2019-02-20T10:25:13.449Z,7.34
2019-02-20T10:26:13.432Z,7.33
2019-02-20T10:27:13.428Z,7.32
2019-02-20T10:28:13.427Z,7.39
2019-02-20T10:29:13.407Z,7.37
2019-02-20T10:30:13.401Z,7.34
2019-02-20T10:31:13.385Z,7.48
2019-02-20T10:32:13.377Z,7.36
2019-02-20T10:33:13.386Z,7.41
2019-02-20T10:34:13.365Z,7.36
2019-02-20T10:35:13.347Z,7.36
2019-02-20T10:36:13.338Z,7.29
2019-02-20T10:37:13.319Z,7.26
2019-02-20T10:38:13.317Z,7.33
2019-02-20T10:39:13.350Z,7.42
2019-02-20T10:40:13.293Z,7.33
2019-02-20T10:41:13.292Z,7.39
2019-02-20T10:42:13.267Z,7.36
2019-02-20T10:43:13.278Z,7.48
2019-02-20T10:44:13.239Z,7.39
2019-02-20T10:45:13.229Z,7.50
2019-02-20T10:46:13.219Z,7.44
2019-02-20T10:47:13.215Z,7.42
2019-02-20T10:48:13.221Z,7.47
2019-02-20T10:49:13.190Z,7.48
2019-02-20T10:50:13.181Z,7.52
2019-02-20T10:51:13.169Z,7.55
2019-02-20T10:52:13.169Z,7.62
2019-02-20T10:53:13.147Z,7.66
2019-02-20T10:54:13.163Z,7.63
2019-02-20T10:55:13.139Z,7.67
2019-02-20T10:56:13.118Z,7.71
2019-02-20T10:57:13.107Z,7.76
2019-02-20T10:58:13.099Z,7.77
2019-02-20T10:59:13.111Z,7.84
2019-02-20T11:00:23.184Z,7.84
2019-02-20T11:01:14.058Z,7.82
2019-02-20T11:02:13.050Z,7.82
2019-02-20T11:03:13.061Z,7.77
2019-02-20T11:04:13.049Z,7.77
2019-02-20T11:05:13.039Z,7.95
2019-02-20T11:06:13.002Z,7.85
2019-02-20T11:07:12.988Z,7.84
2019-02-20T11:08:13.094Z,7.88
2019-02-20T11:09:12.988Z,7.82
2019-02-20T11:10:12.971Z,7.82
2019-02-20T11:11:12.976Z,7.88
2019-02-20T11:12:12.967Z,7.77
2019-02-20T11:13:12.918Z,7.79
2019-02-20T11:14:12.930Z,7.76
2019-02-20T11:15:13.226Z,7.82
2019-02-20T11:16:12.956Z,7.79
2019-02-20T11:17:12.891Z,7.74
2019-02-20T11:18:12.873Z,7.86
2019-02-20T11:19:12.935Z,7.84
2019-02-20T11:20:13.777Z,7.86
2019-02-20T11:21:12.839Z,7.91
2019-02-20T11:22:12.832Z,7.92
2019-02-20T11:23:12.824Z,7.74
2019-02-20T11:24:12.819Z,7.89
2019-02-20T11:25:13.303Z,7.79
2019-02-20T11:26:18.391Z,7.84
2019-02-20T11:27:13.767Z,7.81
2019-02-20T11:28:12.772Z,7.94
2019-02-20T11:29:12.763Z,7.91
2019-02-20T11:30:12.836Z,7.95
2019-02-20T11:31:12.740Z,7.99
2019-02-20T11:32:12.715Z,7.86
2019-02-20T11:33:12.741Z,7.94
2019-02-20T11:34:12.710Z,7.94
2019-02-20T11:35:12.687Z,7.89
2019-02-20T11:36:12.710Z,7.96
2019-02-20T11:37:12.665Z,7.91
2019-02-20T11:38:14.194Z,7.95
2019-02-20T11:39:12.658Z,8.04
2019-02-20T11:40:12.629Z,8.09
2019-02-20T11:41:13.541Z,8.03
2019-02-20T11:42:12.646Z,8.03
2019-02-20T11:43:12.611Z,8.06
2019-02-20T11:44:20.660Z,7.99
2019-02-20T11:45:13.575Z,8.03
2019-02-20T11:46:12.632Z,8.03
2019-02-20T11:47:12.580Z,8.07
2019-02-20T11:48:12.540Z,8.06
2019-02-20T11:49:12.551Z,8.06
2019-02-20T11:50:12.575Z,8.10
2019-02-20T11:51:12.537Z,8.04
2019-02-20T11:52:12.501Z,8.02
2019-02-20T11:53:12.579Z,7.95
2019-02-20T11:54:12.473Z,7.95
2019-02-20T11:55:12.479Z,8.02
2019-02-20T11:56:12.468Z,7.95
2019-02-20T11:57:13.915Z,8.09
2019-02-20T11:58:12.431Z,8.03
2019-02-20T11:59:12.452Z,8.06
2019-02-20T12:00:12.425Z,8.04
2019-02-20T12:01:12.410Z,8.04
2019-02-20T12:02:12.404Z,8.12
2019-02-20T12:03:12.372Z,8.14
2019-02-20T12:04:12.378Z,8.21
2019-02-20T12:05:12.824Z,8.17
2019-02-20T12:06:12.354Z,8.20
2019-02-20T12:07:12.334Z,8.10
2019-02-20T12:08:12.336Z,8.07
2019-02-20T12:09:12.317Z,8.04
2019-02-20T12:10:12.867Z,8.09
2019-02-20T12:11:12.284Z,8.10
2019-02-20T12:12:12.273Z,8.04
2019-02-20T12:13:12.279Z,8.18
2019-02-20T12:14:12.276Z,8.07
2019-02-20T12:15:12.239Z,8.14
2019-02-20T12:16:12.299Z,8.12
2019-02-20T12:17:12.227Z,8.18
2019-02-20T12:18:17.419Z,8.20
2019-02-20T12:19:13.204Z,8.20
2019-02-20T12:20:12.196Z,8.10
2019-02-20T12:21:12.336Z,8.22
2019-02-20T12:22:12.186Z,8.17
2019-02-20T12:23:12.160Z,8.14
2019-02-20T12:24:12.154Z,8.24
2019-02-20T12:25:12.202Z,8.22
2019-02-20T12:26:12.130Z,8.13
2019-02-20T12:27:12.136Z,8.24
2019-02-20T12:28:12.106Z,8.27
2019-02-20T12:29:12.093Z,8.18
2019-02-20T12:30:12.089Z,8.28
2019-02-20T12:31:12.087Z,8.32
2019-02-20T12:32:12.060Z,8.28
2019-02-20T12:33:12.070Z,8.32
2019-02-20T12:34:12.034Z,8.36
2019-02-20T12:35:12.037Z,8.43
2019-02-20T12:36:12.024Z,8.37
2019-02-20T12:37:12.025Z,8.40
2019-02-20T12:38:12.034Z,8.45
2019-02-20T12:39:11.995Z,8.43
2019-02-20T12:40:11.989Z,8.34
2019-02-20T12:41:11.966Z,8.36
2019-02-20T12:42:13.035Z,8.36
2019-02-20T12:43:11.949Z,8.42
2019-02-20T12:44:11.985Z,8.42
2019-02-20T12:45:11.923Z,8.37
2019-02-20T12:46:11.913Z,8.40
2019-02-20T12:47:11.915Z,8.40
2019-02-20T12:48:11.901Z,8.39
2019-02-20T12:49:11.871Z,8.32
2019-02-20T12:50:11.921Z,8.39
2019-02-20T12:51:11.858Z,8.40
2019-02-20T12:52:11.840Z,8.40
2019-02-20T12:53:11.847Z,8.54
2019-02-20T12:54:11.830Z,8.50
2019-02-20T12:55:11.806Z,8.47
2019-02-20T12:56:11.835Z,8.52
2019-02-20T12:57:11.783Z,8.55
2019-02-20T12:58:11.792Z,8.54
2019-02-20T12:59:11.765Z,8.58
2019-02-20T13:00:11.782Z,8.54
2019-02-20T13:01:11.780Z,8.50
2019-02-20T13:02:11.735Z,8.45
2019-02-20T13:03:11.757Z,8.58
2019-02-20T13:04:11.727Z,8.49
2019-02-20T13:05:11.712Z,8.60
2019-02-20T13:06:11.812Z,8.52
2019-02-20T13:07:11.685Z,8.58
2019-02-20T13:08:11.674Z,8.55
2019-02-20T13:09:11.679Z,8.49
2019-02-20T13:10:11.688Z,8.57
2019-02-20T13:11:11.664Z,8.58
2019-02-20T13:12:11.652Z,8.60
2019-02-20T13:13:11.617Z,8.58
2019-02-20T13:14:11.607Z,8.65
2019-02-20T13:15:11.595Z,8.57
2019-02-20T13:16:11.584Z,8.58
2019-02-20T13:17:11.595Z,8.60
2019-02-20T13:18:11.591Z,8.68
2019-02-20T13:19:11.621Z,8.68
2019-02-20T13:20:11.553Z,8.67
2019-02-20T13:21:11.526Z,8.70
2019-02-20T13:22:11.527Z,8.68